Time;durP1;ratioP1;P1;durP2;ratioP2;P2;SDS_P1;SDS_P2;PMS_P1;PMS_P2;Temp;Humidity;BMP_temperature;BMP_pressure;BME280_temperature;BME280_humidity;BME280_pressure;Samples;Min_cycle;Max_cycle;Signal;HPM_P1;HPM_P2
2021/01/02 00:00:21;;;;;;;5.53;3.30;;;1.80;99.90;;;;;;4995203;28;20249;-64
2021/01/02 00:03:26;;;;;;;4.77;3.20;;;1.70;99.90;;;;;;4995307;28;20248;-62
2021/01/02 00:06:05;;;;;;;4.77;2.80;;;1.70;99.90;;;;;;4965353;28;20284;-64
2021/01/02 00:08:36;;;;;;;6.10;2.70;;;1.70;99.90;;;;;;4995278;28;20353;-63
2021/01/02 00:11:27;;;;;;;5.13;2.63;;;1.70;99.90;;;;;;4994691;28;20271;-63
2021/01/02 00:14:18;;;;;;;4.73;2.57;;;1.60;99.90;;;;;;4994913;28;20190;-63
2021/01/02 00:17:13;;;;;;;4.60;2.60;;;1.70;99.90;;;;;;4967693;28;20718;-63
2021/01/02 00:20:10;;;;;;;3.40;2.17;;;1.60;99.90;;;;;;4994445;28;20682;-62
2021/01/02 00:22:52;;;;;;;3.27;2.03;;;1.70;99.90;;;;;;4973123;28;20202;-63
2021/01/02 00:25:21;;;;;;;2.50;1.77;;;1.70;99.90;;;;;;4973750;28;20253;-64
2021/01/02 00:28:15;;;;;;;2.77;1.93;;;1.60;99.90;;;;;;4978598;28;20556;-61
2021/01/02 00:30:58;;;;;;;3.17;2.10;;;1.70;99.90;;;;;;4994550;28;20334;-64
2021/01/02 00:33:40;;;;;;;3.30;1.93;;;1.70;99.90;;;;;;4994677;28;20186;-62
2021/01/02 00:36:17;;;;;;;2.57;1.90;;;1.70;99.90;;;;;;4994390;28;20185;-64
2021/01/02 00:38:46;;;;;;;2.63;1.80;;;1.70;99.90;;;;;;4994844;28;20213;-64
2021/01/02 00:41:13;;;;;;;3.37;2.13;;;1.60;99.90;;;;;;4994647;28;20291;-62
2021/01/02 00:43:46;;;;;;;3.67;2.00;;;1.60;99.90;;;;;;4994663;28;20317;-63
2021/01/02 00:46:12;;;;;;;2.93;1.90;;;1.60;99.90;;;;;;4994704;28;20240;-63
2021/01/02 00:48:40;;;;;;;3.20;2.17;;;1.60;99.90;;;;;;4994047;28;20232;-62
2021/01/02 00:51:09;;;;;;;3.20;2.20;;;1.60;99.90;;;;;;4994240;28;20672;-65
2021/01/02 00:53:52;;;;;;;4.03;2.10;;;1.60;99.90;;;;;;4994529;28;20197;-64
2021/01/02 00:56:29;;;;;;;3.17;2.17;;;1.60;99.90;;;;;;4975061;28;20616;-65
2021/01/02 00:59:33;;;;;;;4.43;2.47;;;1.70;99.90;;;;;;4974548;28;20222;-63
2021/01/02 01:02:15;;;;;;;3.53;2.40;;;1.70;99.90;;;;;;4955714;29;20218;-62
2021/01/02 01:05:03;;;;;;;3.53;2.53;;;1.60;99.90;;;;;;4957856;28;20246;-62
2021/01/02 01:07:32;;;;;;;3.60;2.23;;;1.60;99.90;;;;;;4974847;28;20265;-63
2021/01/02 01:10:00;;;;;;;4.30;3.00;;;1.60;99.90;;;;;;4974594;28;20328;-66
2021/01/02 01:12:28;;;;;;;3.70;2.80;;;1.70;99.90;;;;;;4974656;28;20639;-64
2021/01/02 01:14:56;;;;;;;5.03;2.67;;;1.60;99.90;;;;;;4974236;28;20212;-62
2021/01/02 01:17:29;;;;;;;4.67;2.60;;;1.70;99.90;;;;;;4974087;28;20326;-61
2021/01/02 01:20:02;;;;;;;3.77;2.43;;;1.70;99.90;;;;;;4974424;28;20277;-62
2021/01/02 01:22:38;;;;;;;4.50;2.93;;;1.70;99.90;;;;;;4974448;28;20318;-64
2021/01/02 01:25:06;;;;;;;4.17;3.00;;;1.70;99.90;;;;;;4973696;28;20244;-61
2021/01/02 01:27:48;;;;;;;3.77;2.70;;;1.70;99.90;;;;;;4954550;29;20250;-62
2021/01/02 01:30:21;;;;;;;5.10;2.87;;;1.70;99.90;;;;;;4954909;29;20193;-63
2021/01/02 01:32:59;;;;;;;6.07;2.57;;;1.70;99.90;;;;;;4954536;29;20282;-63
2021/01/02 01:35:27;;;;;;;3.83;2.70;;;1.80;99.90;;;;;;4964434;28;20186;-65
2021/01/02 01:37:56;;;;;;;4.53;3.03;;;1.70;99.90;;;;;;4974136;28;20293;-62
2021/01/02 01:40:25;;;;;;;4.23;2.83;;;1.70;99.90;;;;;;4973798;28;20230;-63
2021/01/02 01:43:03;;;;;;;5.73;3.33;;;1.70;99.90;;;;;;4973695;28;20221;-62
2021/01/02 01:46:14;;;;;;;5.13;3.50;;;1.70;99.90;;;;;;4973215;28;20574;-64
2021/01/02 01:49:08;;;;;;;5.77;3.40;;;1.70;99.90;;;;;;4973800;28;20296;-62
2021/01/02 01:51:58;;;;;;;5.87;3.20;;;1.70;99.90;;;;;;4971762;28;20232;-62
2021/01/02 01:55:05;;;;;;;5.27;3.20;;;1.70;99.90;;;;;;4982673;28;20749;-61
2021/01/02 01:57:36;;;;;;;5.50;3.73;;;1.80;99.90;;;;;;4999875;28;20185;-63
2021/01/02 02:00:08;;;;;;;4.83;3.40;;;1.80;99.90;;;;;;4992784;28;20649;-60
2021/01/02 02:03:04;;;;;;;5.93;3.40;;;1.80;99.90;;;;;;4992384;28;20192;-63
2021/01/02 02:05:49;;;;;;;5.97;3.50;;;1.80;99.90;;;;;;4992526;28;20205;-63
2021/01/02 02:08:16;;;;;;;5.60;3.40;;;1.80;99.90;;;;;;4994752;28;20182;-62
2021/01/02 02:10:45;;;;;;;4.47;3.20;;;1.80;99.90;;;;;;4992396;28;20310;-62
2021/01/02 02:13:15;;;;;;;5.60;2.83;;;1.80;99.90;;;;;;4992767;28;20240;-67
2021/01/02 02:15:48;;;;;;;4.67;3.03;;;1.80;99.90;;;;;;4992992;28;20197;-65
2021/01/02 02:18:20;;;;;;;4.80;3.17;;;1.70;99.90;;;;;;4992368;28;20277;-63
2021/01/02 02:20:52;;;;;;;5.60;3.20;;;1.80;99.90;;;;;;4996427;28;20216;-63
2021/01/02 02:23:23;;;;;;;5.30;3.00;;;1.70;99.90;;;;;;5011913;28;20268;-63
2021/01/02 02:25:59;;;;;;;4.57;3.03;;;1.80;99.90;;;;;;5012187;28;20185;-60
2021/01/02 02:29:03;;;;;;;4.33;3.10;;;1.80;99.90;;;;;;5011791;28;20185;-62
2021/01/02 02:31:32;;;;;;;5.73;2.93;;;1.80;99.90;;;;;;5012349;28;20200;-61
2021/01/02 02:34:01;;;;;;;5.53;3.07;;;1.80;99.90;;;;;;5007201;28;20217;-63
2021/01/02 02:36:29;;;;;;;5.43;3.20;;;1.70;99.90;;;;;;4992129;28;20237;-63
2021/01/02 02:38:58;;;;;;;7.27;3.53;;;1.70;99.90;;;;;;4992028;28;20186;-65
2021/01/02 02:41:29;;;;;;;5.07;3.10;;;1.70;99.90;;;;;;4992055;28;20240;-61
2021/01/02 02:44:00;;;;;;;4.80;3.20;;;1.70;99.90;;;;;;4992339;28;20305;-64
2021/01/02 02:46:29;;;;;;;6.27;3.27;;;1.70;99.90;;;;;;4992155;28;20273;-61
2021/01/02 02:48:59;;;;;;;4.63;3.37;;;1.70;99.90;;;;;;4996885;28;20273;-60
2021/01/02 02:51:32;;;;;;;4.60;3.30;;;1.70;99.90;;;;;;5011518;28;20293;-66
2021/01/02 02:53:59;;;;;;;6.13;3.30;;;1.70;99.90;;;;;;5011635;28;20270;-63
2021/01/02 02:56:25;;;;;;;5.87;3.07;;;1.70;99.90;;;;;;4998404;28;20585;-64
2021/01/02 02:58:52;;;;;;;6.97;3.50;;;1.60;99.90;;;;;;4992292;28;20272;-63
2021/01/02 03:01:19;;;;;;;5.37;3.67;;;1.60;99.90;;;;;;4993070;28;20257;-61
2021/01/02 03:03:45;;;;;;;5.50;3.40;;;1.60;99.90;;;;;;4998003;28;20332;-63
2021/01/02 03:06:12;;;;;;;7.20;3.60;;;1.60;99.90;;;;;;4998143;28;20230;-63
2021/01/02 03:08:40;;;;;;;5.93;3.77;;;1.60;99.90;;;;;;4991901;28;20701;-62
2021/01/02 03:11:07;;;;;;;6.07;3.43;;;1.60;99.90;;;;;;4991791;28;20284;-64
2021/01/02 03:13:41;;;;;;;6.87;4.03;;;1.60;99.90;;;;;;4991653;28;20281;-63
2021/01/02 03:16:07;;;;;;;6.00;3.67;;;1.60;99.90;;;;;;4991926;28;20579;-61
2021/01/02 03:18:34;;;;;;;6.13;3.77;;;1.60;99.90;;;;;;4992316;28;20272;-62
2021/01/02 03:21:00;;;;;;;6.33;3.60;;;1.70;99.90;;;;;;4992107;28;20280;-64
2021/01/02 03:23:26;;;;;;;4.90;3.20;;;1.60;99.90;;;;;;4991838;28;20237;-64
2021/01/02 03:25:54;;;;;;;6.53;4.03;;;1.60;99.90;;;;;;5000875;28;20557;-64
2021/01/02 03:28:20;;;;;;;5.57;3.63;;;1.60;99.90;;;;;;5011611;28;20225;-64
2021/01/02 03:30:47;;;;;;;5.37;3.70;;;1.60;99.90;;;;;;5005792;28;20324;-62
2021/01/02 03:33:13;;;;;;;6.13;3.53;;;1.60;99.90;;;;;;4991515;28;20236;-66
2021/01/02 03:35:40;;;;;;;5.07;3.33;;;1.60;99.90;;;;;;4991623;28;20738;-64
2021/01/02 03:38:06;;;;;;;5.60;3.53;;;1.60;99.90;;;;;;4991851;28;20193;-62
2021/01/02 03:40:32;;;;;;;5.63;3.70;;;1.60;99.90;;;;;;4995090;28;20237;-63
2021/01/02 03:43:00;;;;;;;5.27;3.53;;;1.60;99.90;;;;;;4995008;28;20233;-64
2021/01/02 03:45:26;;;;;;;5.40;3.43;;;1.50;99.90;;;;;;5002511;28;20366;-66
2021/01/02 03:47:52;;;;;;;5.50;3.43;;;1.50;99.90;;;;;;5014654;28;20220;-61
2021/01/02 03:50:19;;;;;;;5.47;3.37;;;1.50;99.90;;;;;;5014506;28;20687;-63
2021/01/02 03:52:45;;;;;;;6.93;3.63;;;1.50;99.90;;;;;;5014964;28;20243;-65
2021/01/02 03:55:13;;;;;;;5.43;4.03;;;1.50;99.90;;;;;;5014233;28;20268;-63
2021/01/02 03:57:39;;;;;;;6.50;3.70;;;1.60;99.90;;;;;;5014884;28;20185;-62
2021/01/02 04:00:08;;;;;;;4.80;3.27;;;1.50;99.90;;;;;;5001163;28;20233;-62
2021/01/02 04:02:35;;;;;;;5.97;3.83;;;1.50;99.90;;;;;;4995018;28;20284;-64
2021/01/02 04:05:01;;;;;;;6.90;3.47;;;1.50;99.90;;;;;;4995142;28;20316;-65
2021/01/02 04:07:29;;;;;;;5.40;3.27;;;1.50;99.90;;;;;;4995167;28;20244;-62
2021/01/02 04:09:56;;;;;;;4.80;3.50;;;1.50;99.90;;;;;;4994483;28;20284;-63
2021/01/02 04:12:23;;;;;;;6.63;3.70;;;1.40;99.90;;;;;;4995122;28;20633;-62
2021/01/02 04:14:49;;;;;;;6.60;3.73;;;1.50;99.90;;;;;;5012849;28;20736;-64
2021/01/02 04:17:16;;;;;;;5.77;3.53;;;1.50;99.90;;;;;;5014355;28;20228;-62
2021/01/02 04:19:43;;;;;;;5.30;3.70;;;1.50;99.90;;;;;;5013787;28;20181;-64
2021/01/02 04:22:09;;;;;;;6.63;3.83;;;1.50;99.90;;;;;;5014187;28;20304;-63
2021/01/02 04:24:36;;;;;;;7.27;3.90;;;1.40;99.90;;;;;;5013892;28;20231;-64
2021/01/02 04:27:03;;;;;;;6.30;4.00;;;1.40;99.90;;;;;;5011507;28;20326;-63
2021/01/02 04:29:29;;;;;;;7.43;4.57;;;1.50;99.90;;;;;;4994355;28;20671;-64
2021/01/02 04:31:58;;;;;;;6.20;4.00;;;1.50;99.90;;;;;;4994578;28;20240;-63
2021/01/02 04:34:25;;;;;;;7.53;4.30;;;1.50;99.90;;;;;;4994519;28;20202;-60
2021/01/02 04:36:52;;;;;;;6.00;3.90;;;1.50;99.90;;;;;;4994743;28;20284;-63
2021/01/02 04:39:19;;;;;;;6.40;4.27;;;1.40;99.90;;;;;;4995900;28;20217;-64
2021/01/02 04:41:46;;;;;;;7.17;3.90;;;1.50;99.90;;;;;;4993892;28;20237;-62
2021/01/02 04:44:13;;;;;;;8.00;4.60;;;1.50;99.90;;;;;;4994050;28;20372;-61
2021/01/02 04:46:40;;;;;;;6.07;4.10;;;1.50;99.90;;;;;;4983383;28;20281;-63
2021/01/02 04:49:07;;;;;;;6.40;4.30;;;1.50;99.90;;;;;;4974649;28;20605;-64
2021/01/02 04:51:34;;;;;;;7.50;4.50;;;1.50;99.90;;;;;;4974175;28;20234;-62
2021/01/02 04:54:01;;;;;;;8.13;5.07;;;1.50;99.90;;;;;;4974370;28;20636;-64
2021/01/02 04:56:31;;;;;;;7.47;4.83;;;1.50;99.90;;;;;;4985923;28;20268;-64
2021/01/02 04:59:00;;;;;;;7.93;4.60;;;1.50;99.90;;;;;;4994538;28;20202;-64
2021/01/02 05:01:28;;;;;;;7.17;4.60;;;1.60;99.90;;;;;;4993642;28;20291;-66
2021/01/02 05:03:55;;;;;;;6.77;4.80;;;1.60;99.90;;;;;;4993376;28;20308;-62
2021/01/02 05:06:23;;;;;;;9.07;5.27;;;1.70;99.90;;;;;;4993583;28;20272;-64
2021/01/02 05:08:51;;;;;;;8.97;5.23;;;1.70;99.90;;;;;;4994224;28;20282;-64
2021/01/02 05:11:19;;;;;;;8.30;4.80;;;1.80;99.90;;;;;;4993162;28;20622;-61
2021/01/02 05:13:46;;;;;;;8.70;5.07;;;1.80;99.90;;;;;;4993518;28;20197;-61
2021/01/02 05:16:19;;;;;;;7.77;5.07;;;1.80;99.90;;;;;;4993482;28;20193;-64
2021/01/02 05:18:57;;;;;;;7.13;4.63;;;1.90;99.90;;;;;;4992791;28;20189;-62
2021/01/02 05:21:24;;;;;;;8.80;4.93;;;1.90;99.90;;;;;;4993557;28;20639;-64
2021/01/02 05:24:10;;;;;;;7.70;4.90;;;1.90;99.90;;;;;;4993493;28;20269;-63
2021/01/02 05:26:40;;;;;;;8.03;4.83;;;1.90;99.90;;;;;;4993408;28;20632;-64
2021/01/02 05:29:24;;;;;;;7.17;4.80;;;1.80;99.90;;;;;;4993099;28;20660;-63
2021/01/02 05:31:52;;;;;;;7.40;4.50;;;1.80;99.90;;;;;;4993213;28;20209;-61
2021/01/02 05:34:20;;;;;;;8.83;5.27;;;1.80;99.90;;;;;;4993228;28;20241;-62
2021/01/02 05:36:57;;;;;;;7.97;4.73;;;1.80;99.90;;;;;;4993090;28;20288;-64
2021/01/02 05:39:35;;;;;;;8.20;4.90;;;1.80;99.90;;;;;;4993562;28;20255;-61
2021/01/02 05:42:02;;;;;;;7.03;4.80;;;1.80;99.90;;;;;;4992781;28;20305;-63
2021/01/02 05:44:33;;;;;;;10.03;4.77;;;1.80;99.90;;;;;;4993143;28;20309;-62
2021/01/02 05:47:00;;;;;;;7.67;5.13;;;1.80;99.90;;;;;;4993476;28;20265;-63
2021/01/02 05:49:31;;;;;;;11.10;5.00;;;1.80;99.90;;;;;;4993562;28;20236;-64
2021/01/02 05:51:58;;;;;;;8.83;5.10;;;1.80;99.90;;;;;;4992270;28;20715;-62
2021/01/02 05:54:29;;;;;;;9.73;4.77;;;1.80;99.90;;;;;;4992675;28;20244;-64
2021/01/02 05:56:57;;;;;;;8.73;5.13;;;1.80;99.90;;;;;;4993260;28;20197;-66
2021/01/02 05:59:33;;;;;;;10.70;4.67;;;1.80;99.90;;;;;;4992981;28;20196;-61
2021/01/02 06:02:17;;;;;;;8.13;5.10;;;1.80;99.90;;;;;;4991588;28;20201;-64
2021/01/02 06:04:57;;;;;;;9.10;5.20;;;1.90;99.90;;;;;;4992967;28;20612;-64
2021/01/02 06:07:24;;;;;;;9.47;5.90;;;1.90;99.90;;;;;;4992932;28;20189;-61
2021/01/02 06:09:52;;;;;;;8.13;5.50;;;1.90;99.90;;;;;;4992347;28;20284;-64
2021/01/02 06:12:26;;;;;;;9.10;6.13;;;1.80;99.90;;;;;;4992728;28;20291;-62
2021/01/02 06:14:54;;;;;;;11.63;6.43;;;1.90;99.90;;;;;;4992805;28;20272;-63
2021/01/02 06:17:30;;;;;;;9.63;6.03;;;1.80;99.90;;;;;;4992353;28;20193;-63
2021/01/02 06:19:58;;;;;;;13.03;6.40;;;1.90;99.90;;;;;;4992594;28;20273;-64
2021/01/02 06:22:26;;;;;;;11.73;6.50;;;1.90;99.90;;;;;;4992604;28;20201;-62
2021/01/02 06:24:53;;;;;;;11.03;6.60;;;1.90;99.90;;;;;;4992535;28;20338;-66
2021/01/02 06:27:19;;;;;;;12.03;7.07;;;1.90;99.90;;;;;;4992348;28;20285;-64
2021/01/02 06:29:53;;;;;;;11.87;7.23;;;1.90;99.90;;;;;;4992102;28;20332;-65
2021/01/02 06:32:21;;;;;;;12.80;7.23;;;1.90;99.90;;;;;;4992120;28;20279;-62
2021/01/02 06:35:21;;;;;;;13.20;6.70;;;2.00;99.90;;;;;;4992481;28;20669;-63
2021/01/02 06:38:15;;;;;;;10.87;6.67;;;2.00;99.90;;;;;;4988974;28;20376;-65
2021/01/02 06:40:47;;;;;;;13.17;7.10;;;2.00;99.90;;;;;;4972913;28;20229;-63
2021/01/02 06:43:16;;;;;;;12.13;6.80;;;2.10;99.90;;;;;;4972753;28;20301;-61
2021/01/02 06:46:01;;;;;;;12.70;6.47;;;2.10;99.90;;;;;;4973004;28;20257;-64
2021/01/02 06:48:43;;;;;;;11.27;6.47;;;2.20;99.90;;;;;;4975320;28;20242;-61
2021/01/02 06:51:29;;;;;;;10.97;6.47;;;2.10;99.90;;;;;;4991723;28;20217;-62
2021/01/02 06:53:58;;;;;;;14.60;6.53;;;2.10;99.90;;;;;;4993108;28;20288;-62
2021/01/02 06:56:36;;;;;;;9.70;6.13;;;2.10;99.90;;;;;;5012084;28;20307;-62
2021/01/02 06:59:05;;;;;;;10.53;6.73;;;2.10;99.90;;;;;;5005745;28;20269;-63
2021/01/02 07:01:43;;;;;;;9.17;5.97;;;2.10;99.90;;;;;;4994506;28;20647;-65
2021/01/02 07:04:10;;;;;;;10.43;6.40;;;2.10;99.90;;;;;;4992022;28;20635;-62
2021/01/02 07:06:45;;;;;;;11.00;6.73;;;2.00;99.90;;;;;;4997413;28;20674;-64
2021/01/02 07:09:23;;;;;;;9.87;6.20;;;2.10;99.90;;;;;;5012029;28;20191;-63
2021/01/02 07:11:51;;;;;;;8.50;5.63;;;2.10;99.90;;;;;;5012223;28;20247;-62
2021/01/02 07:14:20;;;;;;;9.87;5.47;;;2.10;99.90;;;;;;5014851;28;20200;-68
2021/01/02 07:16:49;;;;;;;8.43;5.70;;;2.10;99.90;;;;;;5015279;28;20196;-62
2021/01/02 07:19:30;;;;;;;12.33;6.00;;;2.10;99.90;;;;;;5015666;28;20567;-64
2021/01/02 07:21:58;;;;;;;9.53;5.37;;;2.10;99.90;;;;;;5015419;28;20284;-64
2021/01/02 07:24:26;;;;;;;7.93;4.70;;;2.10;99.90;;;;;;5015542;28;20229;-65
2021/01/02 07:26:58;;;;;;;7.27;4.63;;;2.00;99.90;;;;;;5015494;28;20229;-63
2021/01/02 07:29:24;;;;;;;7.03;4.80;;;2.00;99.90;;;;;;4998920;28;20268;-66
2021/01/02 07:31:51;;;;;;;5.53;3.83;;;2.00;99.90;;;;;;5014763;28;20216;-65
2021/01/02 07:34:19;;;;;;;5.87;4.00;;;1.90;99.90;;;;;;5015437;28;20286;-65
2021/01/02 07:36:46;;;;;;;5.30;4.00;;;1.80;99.90;;;;;;5015214;28;20232;-62
2021/01/02 07:39:13;;;;;;;5.87;4.30;;;1.80;99.90;;;;;;5015646;28;20604;-64
2021/01/02 07:41:40;;;;;;;5.63;3.87;;;1.80;99.90;;;;;;5004707;28;20280;-62
2021/01/02 07:44:08;;;;;;;8.77;4.40;;;1.80;99.90;;;;;;4995832;28;20201;-66
2021/01/02 07:46:42;;;;;;;5.33;4.10;;;1.70;99.90;;;;;;4996098;28;20680;-64
2021/01/02 07:49:08;;;;;;;5.57;3.90;;;1.70;99.90;;;;;;4996058;28;20280;-61
2021/01/02 07:51:35;;;;;;;7.40;4.60;;;1.70;99.90;;;;;;4995330;28;20229;-63
2021/01/02 07:54:01;;;;;;;7.10;4.50;;;1.70;99.90;;;;;;4994735;28;20699;-65
2021/01/02 07:56:35;;;;;;;9.50;4.33;;;1.70;99.90;;;;;;4995213;28;20197;-66
2021/01/02 07:59:24;;;;;;;7.23;4.70;;;1.70;99.90;;;;;;4994777;28;20217;-63
2021/01/02 08:01:55;;;;;;;8.53;4.60;;;1.80;99.90;;;;;;4989690;28;20217;-64
2021/01/02 08:04:23;;;;;;;7.07;4.27;;;1.80;99.90;;;;;;4975843;28;20242;-64
2021/01/02 08:06:51;;;;;;;9.27;4.47;;;1.80;99.90;;;;;;4976912;28;20286;-64
2021/01/02 08:09:18;;;;;;;7.93;4.27;;;1.90;99.90;;;;;;4992928;28;20353;-64
2021/01/02 08:11:56;;;;;;;6.30;3.60;;;1.90;99.90;;;;;;4994087;28;20289;-64
2021/01/02 08:14:24;;;;;;;4.83;3.73;;;1.80;99.90;;;;;;4978050;28;20205;-62
2021/01/02 08:17:05;;;;;;;4.83;3.33;;;1.80;99.90;;;;;;4995392;28;20236;-62
2021/01/02 08:19:34;;;;;;;4.10;3.30;;;1.80;99.90;;;;;;4994670;28;20213;-63
2021/01/02 08:22:02;;;;;;;4.50;3.03;;;1.70;99.90;;;;;;4994083;28;20281;-65
2021/01/02 08:24:29;;;;;;;4.63;3.47;;;1.80;99.90;;;;;;4993637;28;20244;-63
2021/01/02 08:26:56;;;;;;;4.33;3.17;;;1.80;99.90;;;;;;4995177;28;20659;-62
2021/01/02 08:29:26;;;;;;;4.73;3.00;;;1.80;99.90;;;;;;4994644;28;20268;-61
2021/01/02 08:31:55;;;;;;;3.47;3.00;;;1.70;99.90;;;;;;4994774;28;20252;-61
2021/01/02 08:34:26;;;;;;;4.37;2.83;;;1.60;99.90;;;;;;4978290;28;20281;-62
2021/01/02 08:36:57;;;;;;;6.93;3.07;;;1.60;99.90;;;;;;4994276;28;20272;-62
2021/01/02 08:39:23;;;;;;;3.47;2.60;;;1.60;99.90;;;;;;4994486;28;20192;-64
2021/01/02 08:41:52;;;;;;;4.67;2.73;;;1.60;99.90;;;;;;4994763;28;20260;-63
2021/01/02 08:44:26;;;;;;;3.57;2.50;;;1.60;99.90;;;;;;4994855;28;20213;-65
2021/01/02 08:46:53;;;;;;;5.23;2.60;;;1.70;99.90;;;;;;4975490;28;20202;-63
2021/01/02 08:49:27;;;;;;;4.10;2.70;;;1.70;99.90;;;;;;4979477;28;20218;-64
2021/01/02 08:52:16;;;;;;;3.47;2.53;;;1.60;99.90;;;;;;4993935;28;20520;-64
2021/01/02 08:54:43;;;;;;;4.00;2.60;;;1.50;99.90;;;;;;4994077;28;20260;-62
2021/01/02 08:57:29;;;;;;;7.83;2.97;;;1.50;99.90;;;;;;4994368;28;20190;-64
2021/01/02 09:00:14;;;;;;;5.37;3.00;;;1.50;99.90;;;;;;4990872;28;20289;-64
2021/01/02 09:02:42;;;;;;;3.07;2.43;;;1.50;99.90;;;;;;4994592;28;20238;-66
2021/01/02 09:05:10;;;;;;;5.37;2.80;;;1.60;99.90;;;;;;4994079;28;20267;-63
2021/01/02 09:07:38;;;;;;;5.17;2.97;;;1.50;99.90;;;;;;4993687;28;20194;-63
2021/01/02 09:10:42;;;;;;;4.40;2.83;;;1.50;99.90;;;;;;4993827;28;20611;-62
2021/01/02 09:13:19;;;;;;;3.57;2.70;;;1.50;99.90;;;;;;4952989;28;20400;-64
2021/01/02 09:15:52;;;;;;;3.40;2.67;;;1.50;99.90;;;;;;4972364;28;20209;-62
2021/01/02 09:18:34;;;;;;;3.87;2.50;;;1.50;99.90;;;;;;4954312;28;20281;-64
2021/01/02 09:21:26;;;;;;;4.87;2.30;;;1.50;99.90;;;;;;4952644;29;20319;-62
2021/01/02 09:23:53;;;;;;;6.13;2.77;;;1.50;99.90;;;;;;4938807;29;20218;-63
2021/01/02 09:26:22;;;;;;;3.10;2.30;;;1.50;99.90;;;;;;4971458;28;20226;-63
2021/01/02 09:28:51;;;;;;;3.37;2.60;;;1.50;99.90;;;;;;4969506;28;20284;-65
2021/01/02 09:31:18;;;;;;;4.67;2.47;;;1.60;99.90;;;;;;4952291;28;20277;-64
2021/01/02 09:33:45;;;;;;;3.63;2.37;;;1.60;99.90;;;;;;4951614;28;20306;-64
2021/01/02 09:36:13;;;;;;;4.93;2.43;;;1.60;99.90;;;;;;4951599;28;20253;-61
2021/01/02 09:38:40;;;;;;;5.70;2.47;;;1.60;99.90;;;;;;4988537;28;20193;-62
2021/01/02 09:41:08;;;;;;;4.17;2.60;;;1.70;99.90;;;;;;4993194;28;20366;-63
2021/01/02 09:43:34;;;;;;;4.03;2.60;;;1.70;99.90;;;;;;4992443;28;20228;-66
2021/01/02 09:46:01;;;;;;;7.03;2.90;;;1.80;99.90;;;;;;4992909;28;20253;-65
2021/01/02 09:48:27;;;;;;;5.03;2.47;;;1.80;99.90;;;;;;4986969;28;20607;-65
2021/01/02 09:50:54;;;;;;;5.40;2.80;;;1.70;99.90;;;;;;4992747;28;20262;-65
2021/01/02 09:53:20;;;;;;;3.73;2.60;;;1.80;99.90;;;;;;4991975;28;20621;-62
2021/01/02 09:55:47;;;;;;;3.93;2.80;;;1.80;99.90;;;;;;4993919;28;20253;-61
2021/01/02 09:58:14;;;;;;;4.93;2.87;;;1.90;99.90;;;;;;4992416;28;20209;-64
2021/01/02 10:00:41;;;;;;;3.97;2.87;;;1.90;99.90;;;;;;4992191;28;20299;-64
2021/01/02 10:03:10;;;;;;;5.20;2.80;;;1.90;99.90;;;;;;4991843;28;20278;-65
2021/01/02 10:05:37;;;;;;;4.20;2.83;;;2.00;99.90;;;;;;4992277;28;20304;-63
2021/01/02 10:08:05;;;;;;;5.07;2.90;;;2.00;99.90;;;;;;4994393;28;20263;-63
2021/01/02 10:10:31;;;;;;;4.13;3.17;;;2.10;99.90;;;;;;5012044;28;20205;-64
2021/01/02 10:12:59;;;;;;;4.13;2.83;;;2.10;99.90;;;;;;5004328;28;20243;-61
2021/01/02 10:15:26;;;;;;;4.57;3.07;;;2.00;99.90;;;;;;4992085;28;20644;-65
2021/01/02 10:17:53;;;;;;;5.03;3.80;;;2.00;99.90;;;;;;4993047;28;20594;-63
2021/01/02 10:20:20;;;;;;;3.80;3.03;;;2.00;99.90;;;;;;4990870;28;20202;-64
2021/01/02 10:22:46;;;;;;;4.70;2.87;;;2.10;99.90;;;;;;4991936;28;20228;-64
2021/01/02 10:25:14;;;;;;;4.27;3.03;;;2.00;99.90;;;;;;4991897;28;20253;-65
2021/01/02 10:27:40;;;;;;;4.53;3.10;;;2.10;99.90;;;;;;4989622;28;20236;-66
2021/01/02 10:30:11;;;;;;;3.83;2.83;;;2.10;99.90;;;;;;4973100;28;20249;-65
2021/01/02 10:32:39;;;;;;;4.70;2.70;;;2.10;99.90;;;;;;4985016;28;20217;-66
2021/01/02 10:35:09;;;;;;;5.20;3.63;;;2.10;99.90;;;;;;4992410;28;20205;-66
2021/01/02 10:37:35;;;;;;;7.50;4.40;;;2.10;99.90;;;;;;4988648;28;20225;-64
2021/01/02 10:40:03;;;;;;;4.53;3.40;;;2.20;99.90;;;;;;4992456;28;20233;-67
2021/01/02 10:42:32;;;;;;;7.87;3.10;;;2.20;99.90;;;;;;4992099;28;20229;-66
2021/01/02 10:45:00;;;;;;;5.37;3.50;;;2.20;99.90;;;;;;4990880;28;20265;-64
2021/01/02 10:47:28;;;;;;;7.60;5.00;;;2.20;99.90;;;;;;4989474;28;20404;-66
2021/01/02 10:49:56;;;;;;;6.53;4.67;;;2.20;99.90;;;;;;4987834;28;20233;-63
2021/01/02 10:52:24;;;;;;;5.90;4.20;;;2.20;99.90;;;;;;4985370;28;20236;-63
2021/01/02 10:54:51;;;;;;;5.53;3.70;;;2.20;99.90;;;;;;4991846;28;20589;-65
2021/01/02 10:57:19;;;;;;;6.33;4.13;;;2.30;99.90;;;;;;4991881;28;20657;-64
2021/01/02 10:59:48;;;;;;;3.77;3.37;;;2.30;99.90;;;;;;4992274;28;20249;-63
2021/01/02 11:02:16;;;;;;;5.03;3.53;;;2.30;99.90;;;;;;4992199;28;20697;-65
2021/01/02 11:04:42;;;;;;;5.53;3.17;;;2.30;99.90;;;;;;4983563;28;20253;-66
2021/01/02 11:07:11;;;;;;;4.73;3.33;;;2.30;99.90;;;;;;4991454;28;20639;-63
2021/01/02 11:09:37;;;;;;;4.73;3.37;;;2.40;99.90;;;;;;4984496;28;20269;-67
2021/01/02 11:12:05;;;;;;;4.83;3.33;;;2.40;99.90;;;;;;4973086;28;20198;-65
2021/01/02 11:14:32;;;;;;;5.23;3.60;;;2.40;99.90;;;;;;4972453;28;20682;-64
2021/01/02 11:16:59;;;;;;;6.27;3.47;;;2.40;99.90;;;;;;4972692;28;20240;-65
2021/01/02 11:19:27;;;;;;;5.43;3.47;;;2.40;99.90;;;;;;4985334;28;20213;-63
2021/01/02 11:21:55;;;;;;;9.23;3.63;;;2.40;99.90;;;;;;4991082;28;20243;-68
2021/01/02 11:24:23;;;;;;;6.00;3.93;;;2.40;99.90;;;;;;4991290;28;20650;-68
2021/01/02 11:26:52;;;;;;;6.10;3.93;;;2.40;99.90;;;;;;4991796;28;20206;-65
2021/01/02 11:29:21;;;;;;;10.03;3.90;;;2.40;99.90;;;;;;4973319;28;20245;-64
2021/01/02 11:31:49;;;;;;;5.43;3.73;;;2.40;99.90;;;;;;4985903;28;20640;-64
2021/01/02 11:34:16;;;;;;;5.70;3.63;;;2.40;99.90;;;;;;4991547;28;20694;-63
2021/01/02 11:36:43;;;;;;;6.40;4.37;;;2.40;99.90;;;;;;4992139;28;20652;-64
2021/01/02 11:39:11;;;;;;;4.60;3.67;;;2.40;99.90;;;;;;4991557;28;20229;-65
2021/01/02 11:41:39;;;;;;;6.40;3.90;;;2.50;99.90;;;;;;4992168;28;20322;-65
2021/01/02 11:44:08;;;;;;;6.13;4.30;;;2.50;99.90;;;;;;4992589;28;20198;-67
2021/01/02 11:46:39;;;;;;;6.97;4.33;;;2.50;99.90;;;;;;4985165;28;20249;-63
2021/01/02 11:49:10;;;;;;;8.53;4.77;;;2.50;99.90;;;;;;4973029;28;20226;-65
2021/01/02 11:51:36;;;;;;;8.73;4.93;;;2.50;99.90;;;;;;4980784;28;20210;-64
2021/01/02 11:54:03;;;;;;;8.60;4.43;;;2.50;99.90;;;;;;4991627;28;20222;-66
2021/01/02 11:56:30;;;;;;;7.70;4.57;;;2.50;99.90;;;;;;4991942;28;20222;-65
2021/01/02 11:59:01;;;;;;;4.63;3.97;;;2.40;99.90;;;;;;4973788;28;20653;-63
2021/01/02 12:01:35;;;;;;;5.07;4.03;;;2.40;99.90;;;;;;4975815;28;20272;-65
2021/01/02 12:04:02;;;;;;;5.47;4.03;;;2.40;99.90;;;;;;4979912;28;20181;-70
2021/01/02 12:06:30;;;;;;;9.05;5.03;;;2.40;99.90;;;;;;4985838;28;20454;-67
2021/01/02 12:08:57;;;;;;;9.80;4.83;;;2.40;99.90;;;;;;4995126;28;20198;-67
2021/01/02 12:11:28;;;;;;;6.93;4.67;;;2.40;99.90;;;;;;4994081;28;20228;-67
2021/01/02 12:13:55;;;;;;;8.13;4.70;;;2.30;99.90;;;;;;4994841;28;20368;-67
2021/01/02 12:16:29;;;;;;;7.27;4.17;;;2.30;99.90;;;;;;4994928;28;20237;-66
2021/01/02 12:18:56;;;;;;;7.87;4.83;;;2.30;99.90;;;;;;4995019;28;20554;-66
2021/01/02 12:21:22;;;;;;;7.63;4.37;;;2.30;99.90;;;;;;4995157;28;20233;-66
2021/01/02 12:23:49;;;;;;;9.13;4.87;;;2.40;99.90;;;;;;4995221;28;20237;-66
2021/01/02 12:26:16;;;;;;;7.63;4.50;;;2.30;99.90;;;;;;4994866;28;20535;-65
2021/01/02 12:28:45;;;;;;;8.67;5.30;;;2.30;99.90;;;;;;4995128;28;20696;-65
2021/01/02 12:31:17;;;;;;;16.53;8.63;;;2.30;99.90;;;;;;4995118;28;20212;-65
2021/01/02 12:33:46;;;;;;;13.07;5.93;;;2.40;99.90;;;;;;4994997;28;20210;-65
2021/01/02 12:36:13;;;;;;;6.77;4.87;;;2.40;99.90;;;;;;4995005;28;20292;-67
2021/01/02 12:38:40;;;;;;;8.97;5.00;;;2.40;99.90;;;;;;4995059;28;20233;-68
2021/01/02 12:41:12;;;;;;;6.23;4.53;;;2.40;99.90;;;;;;4994664;28;20235;-67
2021/01/02 12:43:39;;;;;;;7.47;5.33;;;2.30;99.90;;;;;;4994562;28;20230;-68
2021/01/02 12:46:06;;;;;;;9.60;6.17;;;2.30;99.90;;;;;;4994758;28;20226;-66
2021/01/02 12:48:33;;;;;;;10.67;5.80;;;2.30;99.90;;;;;;4994648;28;20217;-66
2021/01/02 12:51:00;;;;;;;9.23;5.67;;;2.30;99.90;;;;;;4994422;28;20734;-65
2021/01/02 12:53:27;;;;;;;17.33;7.17;;;2.20;99.90;;;;;;4994319;28;20240;-66
2021/01/02 12:55:53;;;;;;;10.83;6.37;;;2.20;99.90;;;;;;4994741;28;20263;-69
2021/01/02 12:58:20;;;;;;;12.47;7.17;;;2.20;99.90;;;;;;4995047;28;20209;-67
2021/01/02 13:00:46;;;;;;;11.40;6.87;;;2.20;99.90;;;;;;4994532;28;20585;-65
2021/01/02 13:03:13;;;;;;;10.53;6.90;;;2.20;99.90;;;;;;4994769;28;20234;-66
2021/01/02 13:05:39;;;;;;;9.43;6.63;;;2.30;99.90;;;;;;4994320;28;20672;-67
2021/01/02 13:08:07;;;;;;;10.90;6.67;;;2.30;99.90;;;;;;4994426;28;20654;-66
2021/01/02 13:10:34;;;;;;;10.20;6.67;;;2.30;99.90;;;;;;4994111;28;20557;-67
2021/01/02 13:13:01;;;;;;;13.30;6.60;;;2.30;99.90;;;;;;4994983;28;20193;-66
2021/01/02 13:15:27;;;;;;;9.60;6.33;;;2.30;99.90;;;;;;4986001;28;20217;-68